createdAt,value
2023-10-10T00:02:31.664Z,23.60
2023-10-10T00:05:16.331Z,23.00
2023-10-10T00:07:59.633Z,21.83
2023-10-10T00:11:08.243Z,22.10
2023-10-10T00:13:49.920Z,23.57
2023-10-10T00:16:32.587Z,22.77
2023-10-10T00:19:14.922Z,23.47
2023-10-10T00:21:53.411Z,22.63
2023-10-10T00:24:34.324Z,23.90
2023-10-10T00:27:15.940Z,24.67
2023-10-10T00:29:51.919Z,25.87
2023-10-10T00:32:29.169Z,24.73
2023-10-10T00:35:19.306Z,23.63
2023-10-10T00:37:55.213Z,22.30
2023-10-10T00:40:46.654Z,22.13
2023-10-10T00:43:29.654Z,23.87
2023-10-10T00:46:08.475Z,23.47
2023-10-10T00:48:47.659Z,22.23
2023-10-10T00:51:24.756Z,22.00
2023-10-10T00:54:14.117Z,22.17
2023-10-10T00:56:57.379Z,21.93
2023-10-10T00:59:39.268Z,22.50
2023-10-10T01:02:19.940Z,22.90
2023-10-10T01:05:07.841Z,20.53
2023-10-10T01:07:47.783Z,23.67
2023-10-10T01:10:31.300Z,24.60
2023-10-10T01:13:15.315Z,23.60
2023-10-10T01:15:59.891Z,24.40
2023-10-10T01:18:35.539Z,23.87
2023-10-10T01:21:21.711Z,24.50
2023-10-10T01:24:01.139Z,25.57
2023-10-10T01:26:47.330Z,24.57
2023-10-10T01:29:30.230Z,25.33
2023-10-10T01:32:07.340Z,24.60
2023-10-10T01:34:49.616Z,25.67
2023-10-10T01:37:34.076Z,26.67
2023-10-10T01:40:21.288Z,27.40
2023-10-10T01:42:58.755Z,26.63
2023-10-10T01:45:45.895Z,27.00
2023-10-10T01:48:26.447Z,26.33
2023-10-10T01:51:17.747Z,27.33
2023-10-10T01:53:58.578Z,29.40
2023-10-10T01:56:35.129Z,29.30
2023-10-10T01:59:21.562Z,28.13
2023-10-10T02:02:01.267Z,28.03
2023-10-10T02:04:43.455Z,27.87
2023-10-10T02:07:29.112Z,29.27
2023-10-10T02:10:23.986Z,29.40
2023-10-10T02:13:02.256Z,30.23
2023-10-10T02:15:42.460Z,30.00
2023-10-10T02:18:27.941Z,31.63
2023-10-10T02:24:27.929Z,32.33
2023-10-10T02:27:08.535Z,33.43
2023-10-10T02:29:51.672Z,32.47
2023-10-10T02:32:31.254Z,32.93
2023-10-10T02:35:19.645Z,31.50
2023-10-10T02:37:58.066Z,32.20
2023-10-10T02:40:55.606Z,32.33
2023-10-10T02:43:49.212Z,33.47
2023-10-10T02:46:37.322Z,30.50
2023-10-10T02:49:27.677Z,32.90
2023-10-10T02:52:09.534Z,30.97
2023-10-10T02:54:56.881Z,32.83
2023-10-10T02:57:37.480Z,31.43
2023-10-10T03:00:30.741Z,31.83
2023-10-10T03:03:12.899Z,32.27
2023-10-10T03:05:53.394Z,33.67
2023-10-10T03:08:40.373Z,33.90
2023-10-10T03:11:43.325Z,32.77
2023-10-10T03:15:20.807Z,33.60
2023-10-10T03:18:32.369Z,31.20
2023-10-10T03:21:16.072Z,31.47
2023-10-10T03:24:00.059Z,31.50
2023-10-10T03:26:51.389Z,31.17
2023-10-10T03:29:40.271Z,31.27
2023-10-10T03:32:34.074Z,29.90
2023-10-10T03:35:23.704Z,29.90
2023-10-10T03:38:36.811Z,29.47
2023-10-10T03:41:44.325Z,31.03
2023-10-10T03:44:37.808Z,32.83
2023-10-10T03:47:29.410Z,32.27
2023-10-10T03:50:29.664Z,31.47
2023-10-10T03:53:41.460Z,30.57
2023-10-10T03:56:53.209Z,30.23
2023-10-10T03:59:49.736Z,33.67
2023-10-10T04:02:41.366Z,34.73
2023-10-10T04:06:10.284Z,34.50
2023-10-10T04:09:11.392Z,34.73
2023-10-10T04:12:04.388Z,35.67
2023-10-10T04:14:59.012Z,34.43
2023-10-10T04:17:55.180Z,34.60
2023-10-10T04:21:01.231Z,33.10
2023-10-10T04:24:04.693Z,31.53
2023-10-10T04:26:57.580Z,29.30
2023-10-10T04:29:54.092Z,30.00
2023-10-10T04:32:47.354Z,32.27
2023-10-10T04:35:46.246Z,31.20
2023-10-10T04:38:38.746Z,31.60
2023-10-10T04:41:50.721Z,29.33
2023-10-10T04:44:42.806Z,31.33
2023-10-10T04:47:35.784Z,20.83
2023-10-10T04:50:39.490Z,22.60
2023-10-10T04:53:33.689Z,21.50
2023-10-10T04:56:26.070Z,23.43
2023-10-10T04:59:21.816Z,25.73
2023-10-10T05:02:13.685Z,26.63
2023-10-10T05:05:05.578Z,25.63
2023-10-10T05:07:58.222Z,25.63
2023-10-10T05:10:59.389Z,25.70
2023-10-10T05:13:55.237Z,23.77
2023-10-10T05:17:02.786Z,24.47
2023-10-10T05:19:56.173Z,22.70
2023-10-10T05:22:50.601Z,22.80
2023-10-10T05:25:32.589Z,20.03
2023-10-10T05:28:12.347Z,20.00
2023-10-10T05:31:04.676Z,17.40
2023-10-10T05:33:46.575Z,15.17
2023-10-10T05:36:25.023Z,17.63
2023-10-10T05:39:01.405Z,18.30
2023-10-10T05:41:52.455Z,16.53
2023-10-10T05:44:35.458Z,14.47
2023-10-10T05:47:14.919Z,13.17
2023-10-10T05:50:00.619Z,18.03
2023-10-10T05:52:36.878Z,17.13
2023-10-10T05:58:05.174Z,18.47
2023-10-10T06:01:05.153Z,16.10
2023-10-10T06:03:41.852Z,16.43
2023-10-10T06:06:21.356Z,17.60
2023-10-10T06:09:04.819Z,16.17
2023-10-10T06:11:42.028Z,18.23
2023-10-10T06:14:18.274Z,19.40
2023-10-10T06:16:57.371Z,18.23
2023-10-10T06:19:35.405Z,19.60
2023-10-10T06:22:18.096Z,18.73
2023-10-10T06:25:02.897Z,17.17
2023-10-10T06:27:44.030Z,16.97
2023-10-10T06:30:29.838Z,15.47
2023-10-10T06:33:24.275Z,16.50
2023-10-10T06:36:23.040Z,14.57
2023-10-10T06:39:17.352Z,15.83
2023-10-10T06:41:57.460Z,14.73
2023-10-10T06:44:38.965Z,16.10
2023-10-10T06:47:22.171Z,15.13
2023-10-10T06:50:04.064Z,17.73
2023-10-10T06:52:47.708Z,15.87
2023-10-10T06:55:39.206Z,16.07
2023-10-10T06:59:09.004Z,13.53
2023-10-10T07:01:48.294Z,13.53
2023-10-10T07:04:30.395Z,13.37
2023-10-10T07:07:13.449Z,13.83
2023-10-10T07:09:50.018Z,29.90
2023-10-10T07:12:34.889Z,32.80
2023-10-10T07:15:17.208Z,32.73
2023-10-10T07:18:08.060Z,30.47
2023-10-10T07:21:01.028Z,32.30
2023-10-10T07:23:57.921Z,33.07
2023-10-10T07:26:46.226Z,31.60
2023-10-10T07:29:33.265Z,32.57
2023-10-10T07:32:19.265Z,32.57
2023-10-10T07:35:13.799Z,33.20
2023-10-10T07:41:33.998Z,31.10
2023-10-10T07:44:09.679Z,33.17
2023-10-10T07:47:10.468Z,34.13
2023-10-10T07:49:53.168Z,33.37
2023-10-10T07:52:42.368Z,33.60
2023-10-10T07:55:24.555Z,34.33
2023-10-10T07:58:28.430Z,34.93
2023-10-10T08:01:13.554Z,34.17
2023-10-10T08:03:56.982Z,33.10
2023-10-10T08:06:36.135Z,31.43
2023-10-10T08:12:10.697Z,32.83
2023-10-10T08:14:47.338Z,31.70
2023-10-10T08:17:30.570Z,31.83
2023-10-10T08:20:39.856Z,30.83
2023-10-10T08:23:18.065Z,31.30
2023-10-10T08:25:54.360Z,30.60
2023-10-10T08:28:36.001Z,30.80
2023-10-10T08:31:13.537Z,32.97
2023-10-10T08:33:50.132Z,35.40
2023-10-10T08:36:32.297Z,36.23
2023-10-10T08:39:28.207Z,36.47
2023-10-10T08:42:08.797Z,36.63
2023-10-10T08:44:54.019Z,36.47
2023-10-10T08:47:36.473Z,36.40
2023-10-10T08:50:17.099Z,36.73
2023-10-10T08:53:02.875Z,36.10
2023-10-10T08:55:41.482Z,37.07
2023-10-10T08:58:17.906Z,34.63
2023-10-10T09:00:58.431Z,32.40
2023-10-10T09:03:38.434Z,33.30
2023-10-10T09:06:28.875Z,34.50
2023-10-10T09:09:30.093Z,35.43
2023-10-10T09:12:08.001Z,36.17
2023-10-10T09:14:52.995Z,34.73
2023-10-10T09:17:41.034Z,37.30
2023-10-10T09:20:21.146Z,35.47
2023-10-10T09:23:11.291Z,32.43
2023-10-10T09:26:00.608Z,28.10
2023-10-10T09:28:52.125Z,24.83
2023-10-10T09:31:34.209Z,25.30
2023-10-10T09:34:18.266Z,25.57
2023-10-10T09:37:04.823Z,25.27
2023-10-10T09:39:44.728Z,24.67
2023-10-10T09:42:32.696Z,24.27
2023-10-10T09:45:29.705Z,25.63
2023-10-10T09:48:20.130Z,23.53
2023-10-10T09:51:11.293Z,22.93
2023-10-10T09:53:49.843Z,20.97
2023-10-10T09:56:32.406Z,21.43
2023-10-10T09:59:14.111Z,21.17
2023-10-10T10:02:02.846Z,22.47
2023-10-10T10:04:47.658Z,20.73
2023-10-10T10:07:59.351Z,20.80
2023-10-10T10:10:58.096Z,20.60
2023-10-10T10:14:17.333Z,20.20
2023-10-10T10:17:16.960Z,20.53
2023-10-10T10:19:54.172Z,19.87
2023-10-10T10:22:37.573Z,19.40
2023-10-10T10:25:28.896Z,20.40
2023-10-10T10:28:13.946Z,19.23
2023-10-10T10:31:17.030Z,17.50
2023-10-10T10:34:28.395Z,17.00
2023-10-10T10:37:17.092Z,15.47
2023-10-10T10:40:18.501Z,16.27
2023-10-10T10:43:01.151Z,16.23
2023-10-10T10:45:44.528Z,17.00
2023-10-10T10:48:33.991Z,15.83
2023-10-10T10:51:35.716Z,15.13
2023-10-10T10:54:37.785Z,14.40
2023-10-10T10:57:47.176Z,13.67
2023-10-10T11:00:59.692Z,13.40
2023-10-10T11:03:48.606Z,13.37
2023-10-10T11:06:33.053Z,13.10
2023-10-10T11:09:27.087Z,12.47
2023-10-10T11:12:21.762Z,12.17
2023-10-10T11:15:12.907Z,11.47
2023-10-10T11:18:11.033Z,11.73
2023-10-10T11:21:11.337Z,12.07
2023-10-10T11:24:01.081Z,12.30
2023-10-10T11:26:48.467Z,11.70
2023-10-10T11:29:39.294Z,12.93
2023-10-10T11:32:18.633Z,13.87
2023-10-10T11:35:17.450Z,11.90
2023-10-10T11:38:02.829Z,13.60
2023-10-10T11:40:47.862Z,30.03
2023-10-10T11:43:33.369Z,34.83
2023-10-10T11:46:14.155Z,35.63
2023-10-10T11:48:56.748Z,37.03
2023-10-10T11:51:43.813Z,37.80
2023-10-10T11:54:29.699Z,35.23
2023-10-10T11:57:21.466Z,35.53
2023-10-10T12:00:30.609Z,34.30
2023-10-10T12:03:10.124Z,34.47
2023-10-10T12:05:57.454Z,36.23
2023-10-10T12:09:03.758Z,35.67
2023-10-10T12:11:44.233Z,37.40
2023-10-10T12:14:32.716Z,38.10
2023-10-10T12:17:14.502Z,37.77
2023-10-10T12:20:03.500Z,38.77
2023-10-10T12:22:41.472Z,41.27
2023-10-10T12:25:28.030Z,46.50
2023-10-10T12:28:21.449Z,49.17
2023-10-10T12:31:24.734Z,49.30
2023-10-10T12:34:17.565Z,52.70
2023-10-10T12:37:02.893Z,53.30
2023-10-10T12:39:41.018Z,55.67
2023-10-10T12:42:29.323Z,54.50
2023-10-10T12:45:07.746Z,54.37
2023-10-10T12:48:08.944Z,56.23
2023-10-10T12:50:53.715Z,55.17
2023-10-10T12:53:43.216Z,53.53
2023-10-10T12:56:23.343Z,54.37
2023-10-10T12:59:25.681Z,54.20
2023-10-10T13:02:09.360Z,53.97
2023-10-10T13:04:55.953Z,50.50
2023-10-10T13:07:48.553Z,50.40
2023-10-10T13:10:33.122Z,49.53
2023-10-10T13:13:10.918Z,46.90
2023-10-10T13:16:10.731Z,48.93
2023-10-10T13:19:00.126Z,45.90
2023-10-10T13:24:52.844Z,47.43
2023-10-10T13:27:59.003Z,48.93
2023-10-10T13:30:39.133Z,45.83
2023-10-10T13:33:19.584Z,46.07
2023-10-10T13:36:17.610Z,46.40
2023-10-10T13:39:08.573Z,47.03
2023-10-10T13:41:51.643Z,47.07
2023-10-10T13:44:40.323Z,44.27
2023-10-10T13:47:28.313Z,45.13
2023-10-10T13:50:30.956Z,46.30
2023-10-10T13:53:15.415Z,47.67
2023-10-10T13:56:00.197Z,47.90
2023-10-10T13:58:45.052Z,51.23
2023-10-10T14:01:39.351Z,48.67
2023-10-10T14:04:27.019Z,48.87
2023-10-10T14:07:09.198Z,47.90
2023-10-10T14:10:02.852Z,46.23
2023-10-10T14:12:47.413Z,47.83
2023-10-10T14:15:32.469Z,47.77
2023-10-10T14:18:13.530Z,50.37
2023-10-10T14:20:53.619Z,49.07
2023-10-10T14:23:38.345Z,49.87
2023-10-10T14:26:30.973Z,50.63
2023-10-10T14:29:35.760Z,53.00
2023-10-10T14:32:35.478Z,53.13
2023-10-10T14:35:16.771Z,51.03
2023-10-10T14:38:07.992Z,52.20
2023-10-10T14:40:50.175Z,51.90
2023-10-10T14:43:39.381Z,52.17
2023-10-10T14:46:32.994Z,50.50
2023-10-10T14:49:25.140Z,53.97
2023-10-10T14:52:06.416Z,55.27
2023-10-10T14:54:51.992Z,53.97
2023-10-10T14:57:33.818Z,54.87
2023-10-10T15:00:25.668Z,56.13
2023-10-10T15:03:19.587Z,57.63
2023-10-10T15:06:15.135Z,57.13
2023-10-10T15:08:59.562Z,56.90
2023-10-10T15:11:38.840Z,56.07
2023-10-10T15:14:17.973Z,55.47
2023-10-10T15:17:02.316Z,57.17
2023-10-10T15:19:48.070Z,57.03
2023-10-10T15:22:28.894Z,56.33
2023-10-10T15:25:07.630Z,55.87
2023-10-10T15:27:46.684Z,52.63
2023-10-10T15:30:33.625Z,53.77
2023-10-10T15:33:25.224Z,56.87
2023-10-10T15:36:19.689Z,56.27
2023-10-10T15:39:00.371Z,58.70
2023-10-10T15:41:39.777Z,59.27
2023-10-10T15:44:40.260Z,55.23
2023-10-10T15:47:22.394Z,56.43
2023-10-10T15:50:08.384Z,56.97
2023-10-10T15:52:59.297Z,57.70
2023-10-10T15:55:42.011Z,56.40
2023-10-10T15:58:25.545Z,56.47
2023-10-10T16:01:11.263Z,56.90
2023-10-10T16:04:12.540Z,57.67
2023-10-10T16:06:58.875Z,58.23
2023-10-10T16:09:49.938Z,55.77
2023-10-10T16:12:31.663Z,56.53
2023-10-10T16:15:20.105Z,57.60
2023-10-10T16:18:09.761Z,55.03
2023-10-10T16:20:51.087Z,55.70
2023-10-10T16:23:38.484Z,55.20
2023-10-10T16:26:24.042Z,54.87
2023-10-10T16:29:22.278Z,53.90
2023-10-10T16:32:05.838Z,54.07
2023-10-10T16:34:51.321Z,55.23
2023-10-10T16:37:40.959Z,57.50
2023-10-10T16:40:29.090Z,56.67
2023-10-10T16:43:20.934Z,56.20
2023-10-10T16:46:06.672Z,54.50
2023-10-10T16:51:53.803Z,55.47
2023-10-10T16:54:44.336Z,55.97
2023-10-10T16:57:26.298Z,56.13
2023-10-10T17:00:30.938Z,54.13
2023-10-10T17:03:19.105Z,56.60
2023-10-10T17:09:08.156Z,54.47
2023-10-10T17:11:54.341Z,54.10
2023-10-10T17:14:43.503Z,55.47
2023-10-10T17:17:39.195Z,52.50
2023-10-10T17:20:27.473Z,52.53
2023-10-10T17:23:16.274Z,51.43
2023-10-10T17:25:55.249Z,50.03
2023-10-10T17:28:41.449Z,49.03
2023-10-10T17:31:23.216Z,49.27
2023-10-10T17:34:04.669Z,48.97
2023-10-10T17:39:54.476Z,45.90
2023-10-10T17:42:35.842Z,46.50
2023-10-10T17:45:23.683Z,46.73
2023-10-10T17:48:01.496Z,46.33
2023-10-10T17:50:53.487Z,47.23
2023-10-10T17:53:33.184Z,44.83
2023-10-10T17:56:15.463Z,43.80
2023-10-10T17:58:59.148Z,44.83
2023-10-10T18:01:40.355Z,43.03
2023-10-10T18:04:34.562Z,43.53
2023-10-10T18:07:15.743Z,41.50
2023-10-10T18:09:59.666Z,44.00
2023-10-10T18:12:48.589Z,45.33
2023-10-10T18:15:25.819Z,47.60
2023-10-10T18:18:06.199Z,46.10
2023-10-10T18:20:52.895Z,45.33
2023-10-10T18:23:50.505Z,45.33
2023-10-10T18:26:29.536Z,45.50
2023-10-10T18:29:12.049Z,46.63
2023-10-10T18:32:02.413Z,46.60
2023-10-10T18:34:47.996Z,46.73
2023-10-10T18:37:28.419Z,45.33
2023-10-10T18:40:25.059Z,46.63
2023-10-10T18:43:03.942Z,47.67
2023-10-10T18:45:47.136Z,46.67
2023-10-10T18:48:25.803Z,49.47
2023-10-10T18:51:03.307Z,47.57
2023-10-10T18:53:46.643Z,50.00
2023-10-10T18:56:32.957Z,48.10
2023-10-10T18:59:16.468Z,48.20
2023-10-10T19:01:55.815Z,49.67
2023-10-10T19:04:33.100Z,49.67
2023-10-10T19:07:13.020Z,48.90
2023-10-10T19:09:51.228Z,47.20
2023-10-10T19:12:39.441Z,48.13
2023-10-10T19:15:19.765Z,47.23
2023-10-10T19:18:02.092Z,48.33
2023-10-10T19:20:43.402Z,48.53
2023-10-10T19:23:23.782Z,48.17
2023-10-10T19:26:04.530Z,48.23
2023-10-10T19:28:45.001Z,48.27
2023-10-10T19:31:26.538Z,48.40
2023-10-10T19:34:09.335Z,48.70
2023-10-10T19:36:48.289Z,47.27
2023-10-10T19:39:29.381Z,47.30
2023-10-10T19:42:06.839Z,47.97
2023-10-10T19:44:49.672Z,46.27
2023-10-10T19:47:30.501Z,46.37
2023-10-10T19:50:12.267Z,48.10
2023-10-10T19:52:56.720Z,49.97
2023-10-10T19:55:37.598Z,49.60
2023-10-10T19:58:15.514Z,50.43
2023-10-10T20:00:57.481Z,51.07
2023-10-10T20:03:35.832Z,52.70
2023-10-10T20:06:22.835Z,52.63
2023-10-10T20:09:00.471Z,51.73
2023-10-10T20:11:38.009Z,51.27
2023-10-10T20:14:15.750Z,52.50
2023-10-10T20:16:53.989Z,52.03
2023-10-10T20:19:31.046Z,52.13
2023-10-10T20:22:06.558Z,52.37
2023-10-10T20:24:41.053Z,50.10
2023-10-10T20:27:16.452Z,50.60
2023-10-10T20:29:50.675Z,53.07
2023-10-10T20:32:27.017Z,52.40
2023-10-10T20:35:01.550Z,52.87
2023-10-10T20:37:35.601Z,52.10
2023-10-10T20:40:11.683Z,52.53
2023-10-10T20:42:47.691Z,51.13
2023-10-10T20:45:22.387Z,51.97
2023-10-10T20:47:59.518Z,51.43
2023-10-10T20:50:34.078Z,50.20
2023-10-10T20:53:10.016Z,50.30
2023-10-10T20:55:44.528Z,50.43
2023-10-10T20:58:19.225Z,50.43
2023-10-10T21:00:53.689Z,51.77
2023-10-10T21:03:29.337Z,51.40
2023-10-10T21:06:03.444Z,49.97
2023-10-10T21:08:37.636Z,51.43
2023-10-10T21:11:16.487Z,49.80
2023-10-10T21:13:51.882Z,49.00
2023-10-10T21:16:26.452Z,51.67
2023-10-10T21:19:04.827Z,49.97
2023-10-10T21:21:41.098Z,51.83
2023-10-10T21:24:18.582Z,52.90
2023-10-10T21:26:55.144Z,50.93
2023-10-10T21:29:34.674Z,55.70
2023-10-10T21:32:14.927Z,54.73
2023-10-10T21:34:57.673Z,54.60
2023-10-10T21:37:37.241Z,54.10
2023-10-10T21:40:16.762Z,51.73
2023-10-10T21:42:56.951Z,53.83
2023-10-10T21:45:36.884Z,54.10
2023-10-10T21:48:21.302Z,51.63
2023-10-10T21:51:08.471Z,49.03
2023-10-10T21:53:43.580Z,49.10
2023-10-10T21:56:19.264Z,50.53
2023-10-10T21:58:53.270Z,46.80
2023-10-10T22:01:28.791Z,46.40
2023-10-10T22:04:02.909Z,45.07
2023-10-10T22:06:38.736Z,45.93
2023-10-10T22:09:16.034Z,43.07
2023-10-10T22:11:50.857Z,43.00
2023-10-10T22:14:29.929Z,45.50
2023-10-10T22:17:07.914Z,45.17
2023-10-10T22:19:43.133Z,42.37
2023-10-10T22:22:20.120Z,41.07
2023-10-10T22:24:55.847Z,39.90
2023-10-10T22:27:29.987Z,40.07
2023-10-10T22:30:05.261Z,40.57
2023-10-10T22:32:39.752Z,41.70
2023-10-10T22:35:15.513Z,42.57
2023-10-10T22:37:53.826Z,44.43
2023-10-10T22:40:30.968Z,43.53
2023-10-10T22:43:06.153Z,43.97
2023-10-10T22:45:41.356Z,43.97
2023-10-10T22:48:17.474Z,47.33
2023-10-10T22:51:00.788Z,46.57
2023-10-10T22:53:40.606Z,47.40
2023-10-10T22:56:20.814Z,47.20
2023-10-10T22:58:54.859Z,46.00
2023-10-10T23:01:29.163Z,47.23
2023-10-10T23:04:04.516Z,49.47
2023-10-10T23:06:39.647Z,46.63
2023-10-10T23:10:02.916Z,46.53
2023-10-10T23:12:46.522Z,41.77
2023-10-10T23:15:28.001Z,42.90
2023-10-10T23:18:03.642Z,40.17
2023-10-10T23:20:42.411Z,40.83
2023-10-10T23:23:19.255Z,37.00
2023-10-10T23:25:55.489Z,37.73
2023-10-10T23:28:36.491Z,38.30
2023-10-10T23:31:14.001Z,37.07
2023-10-10T23:33:49.423Z,38.90
2023-10-10T23:36:30.802Z,39.60
2023-10-10T23:39:08.934Z,38.40
2023-10-10T23:41:45.653Z,37.70
2023-10-10T23:44:24.244Z,37.83
2023-10-10T23:47:00.201Z,37.63
2023-10-10T23:49:35.050Z,35.97
2023-10-10T23:52:11.862Z,37.40
2023-10-10T23:54:49.488Z,38.23
2023-10-10T23:57:25.122Z,36.63
